GLD166 SIQJ-SWTS
Flight info
| Callsign | GLD166 |
|---|---|
| Flight time | 0h 46m |
| Altitude | 6500 |
| Route | 1448S05623W 1449S05656W 1445S05723W SWTS |
| Aircraft | C182/M-SDFGIRY/S |
Departure
| Time | 2026-04-13 22:24 |
|---|---|
| Airport | Morro do Chapéu II Airport (SIQJ) |
Arrival
| Time | 2026-04-13 23:11 |
|---|---|
| Airport | Tangará da Serra Airport (SWTS) |
| Time | Latitude | Longitude | Altitude | Speed | Heading |
|---|---|---|---|---|---|
| 2026-04-13 22:22 | -14.95737 | -55.80631 | 1121 ft | 0 kts | 186° |
| 2026-04-13 22:22 | -14.95759 | -55.80633 | 1120 ft | 7 kts | 175° |
| 2026-04-13 22:23 | -14.95775 | -55.80617 | 1120 ft | 0 kts | 93° |
| 2026-04-13 22:23 | -14.95779 | -55.80568 | 1116 ft | 27 kts | 95° |
| 2026-04-13 22:23 | -14.95815 | -55.80185 | 1095 ft | 75 kts | 95° |
| 2026-04-13 22:23 | -14.95843 | -55.79645 | 1297 ft | 78 kts | 88° |
| 2026-04-13 22:24 | -14.95674 | -55.79061 | 1372 ft | 99 kts | 43° |
| 2026-04-13 22:24 | -14.94927 | -55.78930 | 1474 ft | 122 kts | 1° |
| 2026-04-13 22:24 | -14.93935 | -55.79493 | 1629 ft | 141 kts | 295° |
| 2026-04-13 22:24 | -14.93809 | -55.80173 | 1740 ft | 146 kts | 277° |
| 2026-04-13 22:25 | -14.93678 | -55.81220 | 1892 ft | 151 kts | 280° |
| 2026-04-13 22:25 | -14.93540 | -55.82330 | 2037 ft | 155 kts | 279° |
| 2026-04-13 22:25 | -14.93404 | -55.83424 | 2179 ft | 155 kts | 279° |
| 2026-04-13 22:25 | -14.93263 | -55.84531 | 2337 ft | 159 kts | 278° |
| 2026-04-13 22:26 | -14.93117 | -55.85677 | 2476 ft | 160 kts | 279° |
| 2026-04-13 22:26 | -14.92976 | -55.86803 | 2633 ft | 156 kts | 278° |
| 2026-04-13 22:26 | -14.92846 | -55.87911 | 2769 ft | 156 kts | 279° |
| 2026-04-13 22:26 | -14.92688 | -55.89029 | 2937 ft | 157 kts | 283° |
| 2026-04-13 22:27 | -14.92463 | -55.90124 | 3081 ft | 154 kts | 284° |
| 2026-04-13 22:27 | -14.92244 | -55.91209 | 3255 ft | 154 kts | 284° |
| 2026-04-13 22:27 | -14.92026 | -55.92286 | 3413 ft | 158 kts | 284° |
| 2026-04-13 22:27 | -14.91804 | -55.93386 | 3574 ft | 159 kts | 283° |
| 2026-04-13 22:28 | -14.91567 | -55.94531 | 3716 ft | 165 kts | 284° |
| 2026-04-13 22:28 | -14.91331 | -55.95664 | 3862 ft | 158 kts | 284° |
| 2026-04-13 22:28 | -14.91097 | -55.96802 | 3996 ft | 163 kts | 284° |
| 2026-04-13 22:28 | -14.90863 | -55.97923 | 4131 ft | 156 kts | 284° |
| 2026-04-13 22:29 | -14.90636 | -55.99016 | 4282 ft | 154 kts | 285° |
| 2026-04-13 22:29 | -14.90409 | -56.00111 | 4430 ft | 156 kts | 284° |
| 2026-04-13 22:29 | -14.90192 | -56.01196 | 4560 ft | 152 kts | 284° |
| 2026-04-13 22:29 | -14.89979 | -56.02259 | 4699 ft | 150 kts | 284° |
| 2026-04-13 22:30 | -14.89764 | -56.03325 | 4853 ft | 154 kts | 285° |
| 2026-04-13 22:30 | -14.89538 | -56.04430 | 4999 ft | 158 kts | 284° |
| 2026-04-13 22:30 | -14.89316 | -56.05519 | 5117 ft | 155 kts | 284° |
| 2026-04-13 22:30 | -14.89100 | -56.06598 | 5267 ft | 153 kts | 285° |
| 2026-04-13 22:31 | -14.88873 | -56.07679 | 5413 ft | 155 kts | 284° |
| 2026-04-13 22:31 | -14.88651 | -56.08780 | 5557 ft | 156 kts | 284° |
| 2026-04-13 22:31 | -14.88425 | -56.09866 | 5703 ft | 153 kts | 285° |
| 2026-04-13 22:31 | -14.88207 | -56.10936 | 5829 ft | 148 kts | 284° |
| 2026-04-13 22:32 | -14.87995 | -56.11959 | 5968 ft | 143 kts | 284° |
| 2026-04-13 22:32 | -14.87789 | -56.12965 | 6104 ft | 142 kts | 284° |
| 2026-04-13 22:32 | -14.87586 | -56.13963 | 6250 ft | 141 kts | 284° |
| 2026-04-13 22:32 | -14.87385 | -56.14950 | 6397 ft | 145 kts | 284° |
| 2026-04-13 22:33 | -14.87179 | -56.15962 | 6529 ft | 143 kts | 284° |
| 2026-04-13 22:33 | -14.86967 | -56.16967 | 6658 ft | 141 kts | 284° |
| 2026-04-13 22:33 | -14.86761 | -56.17948 | 6802 ft | 141 kts | 284° |
| 2026-04-13 22:34 | -14.86137 | -56.20894 | 7204 ft | 133 kts | 284° |
| 2026-04-13 22:34 | -14.85942 | -56.21812 | 7341 ft | 130 kts | 284° |
| 2026-04-13 22:34 | -14.85749 | -56.22721 | 7472 ft | 129 kts | 284° |
| 2026-04-13 22:35 | -14.85558 | -56.23615 | 7616 ft | 126 kts | 284° |
| 2026-04-13 22:35 | -14.85369 | -56.24497 | 7751 ft | 124 kts | 284° |
| 2026-04-13 22:35 | -14.85185 | -56.25365 | 7888 ft | 123 kts | 284° |
| 2026-04-13 22:35 | -14.85002 | -56.26208 | 8027 ft | 120 kts | 284° |
| 2026-04-13 22:36 | -14.84823 | -56.27037 | 8154 ft | 114 kts | 284° |
| 2026-04-13 22:36 | -14.84660 | -56.27809 | 8282 ft | 105 kts | 284° |
| 2026-04-13 22:36 | -14.84512 | -56.28516 | 8397 ft | 97 kts | 284° |
| 2026-04-13 22:36 | -14.84380 | -56.29153 | 8502 ft | 85 kts | 284° |
| 2026-04-13 22:37 | -14.84263 | -56.29726 | 8551 ft | 82 kts | 285° |
| 2026-04-13 22:37 | -14.84152 | -56.30278 | 8641 ft | 75 kts | 285° |
| 2026-04-13 22:37 | -14.84049 | -56.30793 | 8611 ft | 74 kts | 284° |
| 2026-04-13 22:37 | -14.83952 | -56.31299 | 8562 ft | 71 kts | 283° |
| 2026-04-13 22:38 | -14.83855 | -56.31802 | 8526 ft | 70 kts | 280° |
| 2026-04-13 22:38 | -14.83757 | -56.32300 | 8456 ft | 70 kts | 282° |
| 2026-04-13 22:38 | -14.83661 | -56.32794 | 8392 ft | 71 kts | 284° |
| 2026-04-13 22:38 | -14.83563 | -56.33283 | 8331 ft | 72 kts | 286° |
| 2026-04-13 22:39 | -14.83461 | -56.33790 | 8322 ft | 72 kts | 287° |
| 2026-04-13 22:39 | -14.83357 | -56.34310 | 8267 ft | 79 kts | 286° |
| 2026-04-13 22:39 | -14.83238 | -56.34892 | 8277 ft | 82 kts | 285° |
| 2026-04-13 22:39 | -14.83114 | -56.35480 | 8287 ft | 84 kts | 284° |
| 2026-04-13 22:40 | -14.82978 | -56.36117 | 8211 ft | 100 kts | 285° |
| 2026-04-13 22:40 | -14.82818 | -56.36854 | 8173 ft | 111 kts | 284° |
| 2026-04-13 22:40 | -14.82645 | -56.37643 | 8128 ft | 120 kts | 285° |
| 2026-04-13 22:40 | -14.82440 | -56.38557 | 7908 ft | 141 kts | 285° |
| 2026-04-13 22:41 | -14.82196 | -56.39633 | 7522 ft | 165 kts | 285° |
| 2026-04-13 22:41 | -14.81915 | -56.40856 | 7114 ft | 181 kts | 285° |
| 2026-04-13 22:41 | -14.81620 | -56.42146 | 6710 ft | 187 kts | 285° |
| 2026-04-13 22:41 | -14.81323 | -56.43459 | 6360 ft | 190 kts | 285° |
| 2026-04-13 22:42 | -14.81039 | -56.44727 | 6357 ft | 174 kts | 285° |
| 2026-04-13 22:42 | -14.80771 | -56.45916 | 6360 ft | 167 kts | 285° |
| 2026-04-13 22:42 | -14.80522 | -56.47069 | 6355 ft | 162 kts | 284° |
| 2026-04-13 22:42 | -14.80269 | -56.48210 | 6357 ft | 163 kts | 285° |
| 2026-04-13 22:43 | -14.80017 | -56.49343 | 6344 ft | 160 kts | 285° |
| 2026-04-13 22:43 | -14.79773 | -56.50457 | 6349 ft | 159 kts | 285° |
| 2026-04-13 22:43 | -14.79526 | -56.51574 | 6346 ft | 160 kts | 285° |
| 2026-04-13 22:43 | -14.79277 | -56.52700 | 6339 ft | 159 kts | 285° |
| 2026-04-13 22:44 | -14.79030 | -56.53810 | 6346 ft | 160 kts | 285° |
| 2026-04-13 22:44 | -14.78781 | -56.54938 | 6351 ft | 161 kts | 285° |
| 2026-04-13 22:44 | -14.78535 | -56.56047 | 6342 ft | 159 kts | 285° |
| 2026-04-13 22:44 | -14.78285 | -56.57174 | 6356 ft | 164 kts | 285° |
| 2026-04-13 22:45 | -14.78033 | -56.58331 | 6355 ft | 166 kts | 285° |
| 2026-04-13 22:45 | -14.77778 | -56.59475 | 6348 ft | 161 kts | 285° |
| 2026-04-13 22:45 | -14.77530 | -56.60594 | 6349 ft | 159 kts | 285° |
| 2026-04-13 22:45 | -14.77285 | -56.61711 | 6358 ft | 160 kts | 285° |
| 2026-04-13 22:46 | -14.77029 | -56.62848 | 6344 ft | 162 kts | 285° |
| 2026-04-13 22:46 | -14.76778 | -56.63974 | 6342 ft | 159 kts | 285° |
| 2026-04-13 22:46 | -14.76526 | -56.65080 | 6347 ft | 157 kts | 285° |
| 2026-04-13 22:46 | -14.76277 | -56.66181 | 6340 ft | 160 kts | 285° |
| 2026-04-13 22:47 | -14.76028 | -56.67291 | 6345 ft | 157 kts | 285° |
| 2026-04-13 22:47 | -14.75773 | -56.68415 | 6341 ft | 160 kts | 285° |
| 2026-04-13 22:47 | -14.75519 | -56.69532 | 6351 ft | 160 kts | 285° |
| 2026-04-13 22:47 | -14.75270 | -56.70654 | 6334 ft | 158 kts | 283° |
| 2026-04-13 22:48 | -14.75479 | -56.71760 | 6298 ft | 160 kts | 246° |
| 2026-04-13 22:48 | -14.75913 | -56.72798 | 6311 ft | 160 kts | 248° |
| 2026-04-13 22:48 | -14.76342 | -56.73858 | 6306 ft | 159 kts | 246° |
| 2026-04-13 22:48 | -14.76779 | -56.74940 | 6313 ft | 166 kts | 247° |
| 2026-04-13 22:49 | -14.77232 | -56.76047 | 6309 ft | 166 kts | 247° |
| 2026-04-13 22:49 | -14.77618 | -56.77173 | 6311 ft | 165 kts | 256° |
| 2026-04-13 22:49 | -14.77860 | -56.78330 | 6298 ft | 163 kts | 258° |
| 2026-04-13 22:49 | -14.78094 | -56.79454 | 6296 ft | 160 kts | 258° |
| 2026-04-13 22:50 | -14.78330 | -56.80574 | 6292 ft | 160 kts | 258° |
| 2026-04-13 22:50 | -14.78562 | -56.81691 | 6293 ft | 158 kts | 258° |
| 2026-04-13 22:50 | -14.78795 | -56.82803 | 6303 ft | 159 kts | 258° |
| 2026-04-13 22:50 | -14.79026 | -56.83924 | 6294 ft | 159 kts | 258° |
| 2026-04-13 22:51 | -14.79259 | -56.85040 | 6301 ft | 159 kts | 258° |
| 2026-04-13 22:51 | -14.79493 | -56.86173 | 6307 ft | 164 kts | 258° |
| 2026-04-13 22:51 | -14.79730 | -56.87323 | 6292 ft | 162 kts | 258° |
| 2026-04-13 22:51 | -14.79964 | -56.88459 | 6306 ft | 161 kts | 258° |
| 2026-04-13 22:52 | -14.80199 | -56.89592 | 6304 ft | 160 kts | 258° |
| 2026-04-13 22:52 | -14.80437 | -56.90736 | 6302 ft | 164 kts | 258° |
| 2026-04-13 22:52 | -14.80680 | -56.91902 | 6309 ft | 168 kts | 258° |
| 2026-04-13 22:52 | -14.80924 | -56.93083 | 6310 ft | 168 kts | 258° |
| 2026-04-13 22:53 | -14.81159 | -56.94229 | 6297 ft | 163 kts | 258° |
| 2026-04-13 22:53 | -14.81272 | -56.95373 | 6273 ft | 160 kts | 279° |
| 2026-04-13 22:53 | -14.81010 | -56.96478 | 6268 ft | 157 kts | 286° |
| 2026-04-13 22:53 | -14.80750 | -56.97580 | 6278 ft | 159 kts | 285° |
| 2026-04-13 22:54 | -14.80484 | -56.98701 | 6276 ft | 161 kts | 285° |
| 2026-04-13 22:54 | -14.80219 | -56.99824 | 6282 ft | 162 kts | 285° |
| 2026-04-13 22:54 | -14.79945 | -57.00962 | 6281 ft | 164 kts | 285° |
| 2026-04-13 22:54 | -14.79669 | -57.02110 | 6285 ft | 165 kts | 285° |
| 2026-04-13 22:55 | -14.79396 | -57.03249 | 6283 ft | 162 kts | 286° |
| 2026-04-13 22:55 | -14.79124 | -57.04381 | 6279 ft | 162 kts | 285° |
| 2026-04-13 22:55 | -14.78860 | -57.05486 | 6280 ft | 160 kts | 285° |
| 2026-04-13 22:55 | -14.78594 | -57.06605 | 6275 ft | 160 kts | 285° |
| 2026-04-13 22:56 | -14.78328 | -57.07720 | 6274 ft | 159 kts | 285° |
| 2026-04-13 22:56 | -14.78060 | -57.08825 | 6277 ft | 158 kts | 285° |
| 2026-04-13 22:56 | -14.77791 | -57.09936 | 6279 ft | 161 kts | 285° |
| 2026-04-13 22:56 | -14.77520 | -57.11050 | 6277 ft | 158 kts | 286° |
| 2026-04-13 22:57 | -14.77257 | -57.12145 | 6270 ft | 159 kts | 285° |
| 2026-04-13 22:57 | -14.76989 | -57.13244 | 6271 ft | 156 kts | 285° |
| 2026-04-13 22:57 | -14.76722 | -57.14331 | 6285 ft | 158 kts | 286° |
| 2026-04-13 22:57 | -14.76443 | -57.15459 | 6279 ft | 164 kts | 285° |
| 2026-04-13 22:58 | -14.76162 | -57.16589 | 6273 ft | 160 kts | 286° |
| 2026-04-13 22:58 | -14.75892 | -57.17692 | 6272 ft | 157 kts | 285° |
| 2026-04-13 22:58 | -14.75624 | -57.18778 | 6281 ft | 159 kts | 286° |
| 2026-04-13 22:58 | -14.75348 | -57.19898 | 6283 ft | 162 kts | 287° |
| 2026-04-13 22:59 | -14.75075 | -57.21022 | 6273 ft | 159 kts | 285° |
| 2026-04-13 22:59 | -14.74804 | -57.22130 | 6283 ft | 159 kts | 286° |
| 2026-04-13 22:59 | -14.74531 | -57.23246 | 6288 ft | 162 kts | 286° |
| 2026-04-13 22:59 | -14.74257 | -57.24374 | 6274 ft | 160 kts | 285° |
| 2026-04-13 23:00 | -14.73983 | -57.25499 | 6284 ft | 160 kts | 286° |
| 2026-04-13 23:00 | -14.73713 | -57.26614 | 6298 ft | 161 kts | 287° |
| 2026-04-13 23:00 | -14.73441 | -57.27744 | 6282 ft | 162 kts | 285° |
| 2026-04-13 23:00 | -14.73171 | -57.28850 | 6283 ft | 159 kts | 286° |
| 2026-04-13 23:01 | -14.72898 | -57.29949 | 6280 ft | 153 kts | 286° |
| 2026-04-13 23:01 | -14.72639 | -57.31007 | 6273 ft | 158 kts | 286° |
| 2026-04-13 23:01 | -14.72357 | -57.32136 | 6103 ft | 166 kts | 286° |
| 2026-04-13 23:01 | -14.72067 | -57.33310 | 5942 ft | 173 kts | 285° |
| 2026-04-13 23:02 | -14.71756 | -57.34552 | 5745 ft | 182 kts | 286° |
| 2026-04-13 23:02 | -14.71440 | -57.35820 | 5561 ft | 182 kts | 285° |
| 2026-04-13 23:02 | -14.71112 | -57.37110 | 5358 ft | 187 kts | 286° |
| 2026-04-13 23:02 | -14.70788 | -57.38396 | 5146 ft | 184 kts | 286° |
| 2026-04-13 23:03 | -14.70459 | -57.39659 | 4964 ft | 183 kts | 287° |
| 2026-04-13 23:03 | -14.70144 | -57.40918 | 4769 ft | 179 kts | 285° |
| 2026-04-13 23:03 | -14.69606 | -57.42044 | 4541 ft | 175 kts | 314° |
| 2026-04-13 23:03 | -14.68826 | -57.43008 | 4374 ft | 177 kts | 307° |
| 2026-04-13 23:04 | -14.67953 | -57.43910 | 4145 ft | 181 kts | 335° |
| 2026-04-13 23:04 | -14.66739 | -57.44192 | 3930 ft | 182 kts | 356° |
| 2026-04-13 23:04 | -14.65471 | -57.44353 | 3805 ft | 185 kts | 354° |
| 2026-04-13 23:04 | -14.64208 | -57.44601 | 3644 ft | 182 kts | 351° |
| 2026-04-13 23:05 | -14.63098 | -57.45159 | 3478 ft | 183 kts | 316° |
| 2026-04-13 23:05 | -14.62640 | -57.46341 | 3346 ft | 182 kts | 272° |
| 2026-04-13 23:05 | -14.62755 | -57.47633 | 3259 ft | 178 kts | 258° |
| 2026-04-13 23:05 | -14.63434 | -57.48667 | 3120 ft | 177 kts | 213° |
| 2026-04-13 23:06 | -14.64576 | -57.48905 | 3014 ft | 169 kts | 173° |
| 2026-04-13 23:06 | -14.65709 | -57.48807 | 2924 ft | 156 kts | 173° |
| 2026-04-13 23:06 | -14.66765 | -57.48727 | 2907 ft | 149 kts | 173° |
| 2026-04-13 23:06 | -14.67794 | -57.48643 | 2911 ft | 149 kts | 173° |
| 2026-04-13 23:07 | -14.68813 | -57.48562 | 2885 ft | 142 kts | 173° |
| 2026-04-13 23:07 | -14.69769 | -57.48499 | 2870 ft | 128 kts | 173° |
| 2026-04-13 23:07 | -14.70502 | -57.48252 | 2806 ft | 109 kts | 131° |
| 2026-04-13 23:07 | -14.70607 | -57.47544 | 2701 ft | 95 kts | 81° |
| 2026-04-13 23:08 | -14.70536 | -57.46936 | 2675 ft | 80 kts | 77° |
| 2026-04-13 23:08 | -14.70046 | -57.46701 | 2576 ft | 90 kts | 355° |
| 2026-04-13 23:08 | -14.69445 | -57.46748 | 2562 ft | 87 kts | 17° |
| 2026-04-13 23:08 | -14.68902 | -57.46501 | 2547 ft | 85 kts | 41° |
| 2026-04-13 23:09 | -14.68618 | -57.45992 | 2516 ft | 77 kts | 63° |
| 2026-04-13 23:09 | -14.68477 | -57.45497 | 2488 ft | 68 kts | 74° |
| 2026-04-13 23:09 | -14.68270 | -57.45081 | 2400 ft | 74 kts | 38° |
| 2026-04-13 23:09 | -14.67872 | -57.44713 | 2297 ft | 72 kts | 49° |
| 2026-04-13 23:10 | -14.67473 | -57.44394 | 2083 ft | 78 kts | 29° |
| 2026-04-13 23:10 | -14.66880 | -57.44257 | 1672 ft | 97 kts | 6° |
| 2026-04-13 23:10 | -14.66266 | -57.44365 | 1483 ft | 79 kts | 352° |
| 2026-04-13 23:10 | -14.65793 | -57.44460 | 1450 ft | 61 kts | 350° |
| 2026-04-13 23:11 | -14.65584 | -57.44508 | 1443 ft | 21 kts | 328° |
| 2026-04-13 23:11 | -14.65502 | -57.44588 | 1442 ft | 13 kts | 255° |
| 2026-04-13 23:11 | -14.65523 | -57.44665 | 1442 ft | 10 kts | 260° |
| 2026-04-13 23:11 | -14.65531 | -57.44722 | 1442 ft | 4 kts | 178° |
| 2026-04-13 23:12 | -14.65533 | -57.44719 | 1442 ft | 0 kts | 80° |